Terminal Aerodrome Forecast
Issued by NWS

Home | Current Version | Previous Version | Graphics & Text | Print | Product List | Glossary On
Versions: 1 2 3 4 5 6 7 8 9 10 11 12
009
FTUS43 KMPX 231721
TAFRWF
TAF
KRWF 231721Z 2318/2418 31016G25KT P6SM VCSH SCT030 BKN050 BKN090
     FM240100 28008KT P6SM SCT070
     FM241600 29015G23KT P6SM FEW040 BKN110=

USA.gov is the U.S. government's official web portal to all federal, state and local government web resources and services.